sensor_id;sensor_type;location;lat;lon;timestamp;temperature;humidity
13713;DHT22;6928;50.546;7.120;2023-06-22T00:02:00;22.46;76.79
13713;DHT22;6928;50.546;7.120;2023-06-22T00:04:27;22.53;76.56
13713;DHT22;6928;50.546;7.120;2023-06-22T00:06:54;22.47;76.61
13713;DHT22;6928;50.546;7.120;2023-06-22T00:09:20;22.53;76.26
13713;DHT22;6928;50.546;7.120;2023-06-22T00:11:47;22.57;76.26
13713;DHT22;6928;50.546;7.120;2023-06-22T00:14:13;22.53;76.33
13713;DHT22;6928;50.546;7.120;2023-06-22T00:16:41;22.49;76.56
13713;DHT22;6928;50.546;7.120;2023-06-22T00:19:08;22.32;77.34
13713;DHT22;6928;50.546;7.120;2023-06-22T00:21:37;22.43;77.01
13713;DHT22;6928;50.546;7.120;2023-06-22T00:24:04;22.32;77.45
13713;DHT22;6928;50.546;7.120;2023-06-22T00:26:31;22.39;77.11
13713;DHT22;6928;50.546;7.120;2023-06-22T00:28:58;22.35;77.11
13713;DHT22;6928;50.546;7.120;2023-06-22T00:31:24;22.42;77.15
13713;DHT22;6928;50.546;7.120;2023-06-22T00:33:52;22.35;77.23
13713;DHT22;6928;50.546;7.120;2023-06-22T00:36:19;22.22;77.40
13713;DHT22;6928;50.546;7.120;2023-06-22T00:38:45;22.39;76.62
13713;DHT22;6928;50.546;7.120;2023-06-22T00:41:12;22.26;76.69
13713;DHT22;6928;50.546;7.120;2023-06-22T00:43:38;22.28;76.28
13713;DHT22;6928;50.546;7.120;2023-06-22T00:46:06;22.22;76.62
13713;DHT22;6928;50.546;7.120;2023-06-22T00:48:32;22.42;76.03
13713;DHT22;6928;50.546;7.120;2023-06-22T00:51:01;22.23;76.72
13713;DHT22;6928;50.546;7.120;2023-06-22T00:53:28;22.22;76.78
13713;DHT22;6928;50.546;7.120;2023-06-22T00:55:55;22.33;76.39
13713;DHT22;6928;50.546;7.120;2023-06-22T00:58:25;22.25;76.44
13713;DHT22;6928;50.546;7.120;2023-06-22T01:00:51;22.25;76.61
13713;DHT22;6928;50.546;7.120;2023-06-22T01:03:18;22.19;76.22
13713;DHT22;6928;50.546;7.120;2023-06-22T01:05:46;22.22;76.05
13713;DHT22;6928;50.546;7.120;2023-06-22T01:08:23;22.29;75.77
13713;DHT22;6928;50.546;7.120;2023-06-22T01:10:57;22.37;75.67
13713;DHT22;6928;50.546;7.120;2023-06-22T01:13:28;22.25;76.32
13713;DHT22;6928;50.546;7.120;2023-06-22T01:16:00;22.15;76.87
13713;DHT22;6928;50.546;7.120;2023-06-22T01:18:30;22.16;76.88
13713;DHT22;6928;50.546;7.120;2023-06-22T01:21:00;22.18;76.67
13713;DHT22;6928;50.546;7.120;2023-06-22T01:23:33;22.23;76.52
13713;DHT22;6928;50.546;7.120;2023-06-22T01:26:08;22.32;76.29
13713;DHT22;6928;50.546;7.120;2023-06-22T01:28:43;22.23;76.60
13713;DHT22;6928;50.546;7.120;2023-06-22T01:31:13;22.22;76.84
13713;DHT22;6928;50.546;7.120;2023-06-22T01:33:42;22.26;76.71
13713;DHT22;6928;50.546;7.120;2023-06-22T01:36:10;22.22;76.84
13713;DHT22;6928;50.546;7.120;2023-06-22T01:38:38;22.15;77.16
13713;DHT22;6928;50.546;7.120;2023-06-22T01:41:05;22.04;77.48
13713;DHT22;6928;50.546;7.120;2023-06-22T01:43:32;22.18;76.86
13713;DHT22;6928;50.546;7.120;2023-06-22T01:46:02;22.04;77.25
13713;DHT22;6928;50.546;7.120;2023-06-22T01:48:29;22.12;76.82
13713;DHT22;6928;50.546;7.120;2023-06-22T01:50:56;21.85;77.58
13713;DHT22;6928;50.546;7.120;2023-06-22T01:53:23;21.92;77.44
13713;DHT22;6928;50.546;7.120;2023-06-22T01:55:49;22.05;76.81
13713;DHT22;6928;50.546;7.120;2023-06-22T01:58:16;22.08;76.63
13713;DHT22;6928;50.546;7.120;2023-06-22T02:00:48;22.02;76.73
13713;DHT22;6928;50.546;7.120;2023-06-22T02:03:20;21.92;76.99
13713;DHT22;6928;50.546;7.120;2023-06-22T02:05:49;21.98;77.10
13713;DHT22;6928;50.546;7.120;2023-06-22T02:08:19;22.08;76.63
13713;DHT22;6928;50.546;7.120;2023-06-22T02:10:47;21.98;76.72
13713;DHT22;6928;50.546;7.120;2023-06-22T02:13:15;22.08;76.31
13713;DHT22;6928;50.546;7.120;2023-06-22T02:15:42;21.85;77.15
13713;DHT22;6928;50.546;7.120;2023-06-22T02:18:08;21.85;77.63
13713;DHT22;6928;50.546;7.120;2023-06-22T02:20:38;21.85;78.43
13713;DHT22;6928;50.546;7.120;2023-06-22T02:23:05;21.79;79.19
13713;DHT22;6928;50.546;7.120;2023-06-22T02:25:32;21.60;79.89
13713;DHT22;6928;50.546;7.120;2023-06-22T02:27:58;21.50;80.13
13713;DHT22;6928;50.546;7.120;2023-06-22T02:30:25;21.73;80.03
13713;DHT22;6928;50.546;7.120;2023-06-22T02:32:52;21.87;80.46
13713;DHT22;6928;50.546;7.120;2023-06-22T02:35:23;21.84;81.12
13713;DHT22;6928;50.546;7.120;2023-06-22T02:37:51;21.88;81.50
13713;DHT22;6928;50.546;7.120;2023-06-22T02:40:18;22.02;81.90
13713;DHT22;6928;50.546;7.120;2023-06-22T02:42:45;21.79;82.21
13713;DHT22;6928;50.546;7.120;2023-06-22T02:45:11;21.47;82.82
13713;DHT22;6928;50.546;7.120;2023-06-22T02:47:38;21.02;83.18
13713;DHT22;6928;50.546;7.120;2023-06-22T02:50:05;20.86;83.27
13713;DHT22;6928;50.546;7.120;2023-06-22T02:52:32;20.81;83.61
13713;DHT22;6928;50.546;7.120;2023-06-22T02:55:00;20.75;84.03
13713;DHT22;6928;50.546;7.120;2023-06-22T02:57:27;20.81;84.36
13713;DHT22;6928;50.546;7.120;2023-06-22T02:59:53;20.74;84.55
13713;DHT22;6928;50.546;7.120;2023-06-22T03:02:20;20.82;84.24
13713;DHT22;6928;50.546;7.120;2023-06-22T03:04:47;20.74;84.55
13713;DHT22;6928;50.546;7.120;2023-06-22T03:07:14;20.86;84.51
13713;DHT22;6928;50.546;7.120;2023-06-22T03:09:42;20.95;85.01
13713;DHT22;6928;50.546;7.120;2023-06-22T03:12:10;21.05;84.48
13713;DHT22;6928;50.546;7.120;2023-06-22T03:14:37;21.19;84.41
13713;DHT22;6928;50.546;7.120;2023-06-22T03:17:04;21.10;84.52
13713;DHT22;6928;50.546;7.120;2023-06-22T03:19:31;21.15;84.42
13713;DHT22;6928;50.546;7.120;2023-06-22T03:21:59;21.15;83.80
13713;DHT22;6928;50.546;7.120;2023-06-22T03:24:25;21.12;83.68
13713;DHT22;6928;50.546;7.120;2023-06-22T03:26:54;21.15;83.65
13713;DHT22;6928;50.546;7.120;2023-06-22T03:29:23;21.05;83.67
13713;DHT22;6928;50.546;7.120;2023-06-22T03:31:50;20.96;83.63
13713;DHT22;6928;50.546;7.120;2023-06-22T03:34:17;20.91;83.65
13713;DHT22;6928;50.546;7.120;2023-06-22T03:36:43;21.02;83.33
13713;DHT22;6928;50.546;7.120;2023-06-22T03:39:11;21.03;82.81
13713;DHT22;6928;50.546;7.120;2023-06-22T03:41:38;20.88;82.90
13713;DHT22;6928;50.546;7.120;2023-06-22T03:44:04;20.82;83.37
13713;DHT22;6928;50.546;7.120;2023-06-22T03:46:32;21.03;82.79
13713;DHT22;6928;50.546;7.120;2023-06-22T03:48:59;20.91;83.10
13713;DHT22;6928;50.546;7.120;2023-06-22T03:51:26;21.05;82.62
13713;DHT22;6928;50.546;7.120;2023-06-22T03:53:53;21.00;82.86
13713;DHT22;6928;50.546;7.120;2023-06-22T03:56:19;20.96;82.94
13713;DHT22;6928;50.546;7.120;2023-06-22T03:58:46;21.06;82.52
13713;DHT22;6928;50.546;7.120;2023-06-22T04:01:13;20.98;82.62
13713;DHT22;6928;50.546;7.120;2023-06-22T04:03:43;21.06;82.53
13713;DHT22;6928;50.546;7.120;2023-06-22T04:06:10;20.98;82.36
13713;DHT22;6928;50.546;7.120;2023-06-22T04:08:36;21.05;82.61
13713;DHT22;6928;50.546;7.120;2023-06-22T04:11:03;21.00;82.67
13713;DHT22;6928;50.546;7.120;2023-06-22T04:13:30;20.94;83.14
13713;DHT22;6928;50.546;7.120;2023-06-22T04:15:57;20.89;83.29
13713;DHT22;6928;50.546;7.120;2023-06-22T04:18:23;20.85;83.36
13713;DHT22;6928;50.546;7.120;2023-06-22T04:20:51;20.76;83.09
13713;DHT22;6928;50.546;7.120;2023-06-22T04:23:18;20.98;82.36
13713;DHT22;6928;50.546;7.120;2023-06-22T04:25:44;20.84;82.74
13713;DHT22;6928;50.546;7.120;2023-06-22T04:28:11;20.92;82.55
13713;DHT22;6928;50.546;7.120;2023-06-22T04:30:38;21.03;82.18
13713;DHT22;6928;50.546;7.120;2023-06-22T04:33:11;21.03;82.35
13713;DHT22;6928;50.546;7.120;2023-06-22T04:35:38;20.86;83.03
13713;DHT22;6928;50.546;7.120;2023-06-22T04:38:07;20.94;82.67
13713;DHT22;6928;50.546;7.120;2023-06-22T04:40:34;20.91;82.97
13713;DHT22;6928;50.546;7.120;2023-06-22T04:43:01;20.82;83.07
13713;DHT22;6928;50.546;7.120;2023-06-22T04:45:29;20.82;83.21
13713;DHT22;6928;50.546;7.120;2023-06-22T04:47:55;20.92;82.91
13713;DHT22;6928;50.546;7.120;2023-06-22T04:50:22;20.89;83.02
13713;DHT22;6928;50.546;7.120;2023-06-22T04:52:49;20.79;83.13
13713;DHT22;6928;50.546;7.120;2023-06-22T04:55:20;20.86;82.58
13713;DHT22;6928;50.546;7.120;2023-06-22T04:57:47;20.78;82.78
13713;DHT22;6928;50.546;7.120;2023-06-22T05:00:15;20.89;82.62
13713;DHT22;6928;50.546;7.120;2023-06-22T05:02:43;20.86;82.91
13713;DHT22;6928;50.546;7.120;2023-06-22T05:05:10;21.06;82.31
13713;DHT22;6928;50.546;7.120;2023-06-22T05:07:39;20.99;82.60
13713;DHT22;6928;50.546;7.120;2023-06-22T05:10:08;21.13;82.28
13713;DHT22;6928;50.546;7.120;2023-06-22T05:12:37;21.03;82.56
13713;DHT22;6928;50.546;7.120;2023-06-22T05:15:04;20.98;82.78
13713;DHT22;6928;50.546;7.120;2023-06-22T05:17:31;20.96;82.72
13713;DHT22;6928;50.546;7.120;2023-06-22T05:19:57;21.02;82.77
13713;DHT22;6928;50.546;7.120;2023-06-22T05:22:24;20.98;82.94
13713;DHT22;6928;50.546;7.120;2023-06-22T05:24:50;20.88;83.27
13713;DHT22;6928;50.546;7.120;2023-06-22T05:27:17;20.91;83.30
13713;DHT22;6928;50.546;7.120;2023-06-22T05:29:45;21.17;82.84
13713;DHT22;6928;50.546;7.120;2023-06-22T05:32:12;21.17;82.60
13713;DHT22;6928;50.546;7.120;2023-06-22T05:34:38;21.23;82.69
13713;DHT22;6928;50.546;7.120;2023-06-22T05:37:05;21.15;82.95
13713;DHT22;6928;50.546;7.120;2023-06-22T05:39:34;21.23;82.90
13713;DHT22;6928;50.546;7.120;2023-06-22T05:42:04;21.29;82.77
13713;DHT22;6928;50.546;7.120;2023-06-22T05:44:30;21.24;82.35
13713;DHT22;6928;50.546;7.120;2023-06-22T05:46:58;21.39;82.63
13713;DHT22;6928;50.546;7.120;2023-06-22T05:49:25;21.36;82.80
13713;DHT22;6928;50.546;7.120;2023-06-22T05:51:55;21.43;82.42
13713;DHT22;6928;50.546;7.120;2023-06-22T05:54:22;21.46;82.05
13713;DHT22;6928;50.546;7.120;2023-06-22T05:56:48;21.39;81.83
13713;DHT22;6928;50.546;7.120;2023-06-22T05:59:15;21.49;81.83
13713;DHT22;6928;50.546;7.120;2023-06-22T06:01:42;21.60;81.69
13713;DHT22;6928;50.546;7.120;2023-06-22T06:04:10;21.61;81.46
13713;DHT22;6928;50.546;7.120;2023-06-22T06:06:36;21.57;81.55
13713;DHT22;6928;50.546;7.120;2023-06-22T06:09:03;21.70;81.29
13713;DHT22;6928;50.546;7.120;2023-06-22T06:11:30;21.88;80.52
13713;DHT22;6928;50.546;7.120;2023-06-22T06:13:56;21.91;81.01
13713;DHT22;6928;50.546;7.120;2023-06-22T06:16:23;21.91;80.92
13713;DHT22;6928;50.546;7.120;2023-06-22T06:18:50;21.87;80.78
13713;DHT22;6928;50.546;7.120;2023-06-22T06:21:20;21.92;81.43
13713;DHT22;6928;50.546;7.120;2023-06-22T06:23:46;21.94;81.22
13713;DHT22;6928;50.546;7.120;2023-06-22T06:26:13;21.97;80.69
13713;DHT22;6928;50.546;7.120;2023-06-22T06:28:42;22.01;80.36
13713;DHT22;6928;50.546;7.120;2023-06-22T06:31:09;22.16;79.93
13713;DHT22;6928;50.546;7.120;2023-06-22T06:33:37;22.12;80.02
13713;DHT22;6928;50.546;7.120;2023-06-22T06:36:04;22.13;79.89
13713;DHT22;6928;50.546;7.120;2023-06-22T06:38:32;22.16;79.92
13713;DHT22;6928;50.546;7.120;2023-06-22T06:40:59;22.25;79.79
13713;DHT22;6928;50.546;7.120;2023-06-22T06:43:25;22.22;79.67
13713;DHT22;6928;50.546;7.120;2023-06-22T06:45:52;22.22;79.87
13713;DHT22;6928;50.546;7.120;2023-06-22T06:48:18;22.25;79.15
13713;DHT22;6928;50.546;7.120;2023-06-22T06:50:45;22.33;79.15
13713;DHT22;6928;50.546;7.120;2023-06-22T06:53:12;22.30;79.28
13713;DHT22;6928;50.546;7.120;2023-06-22T06:55:40;22.42;78.66
13713;DHT22;6928;50.546;7.120;2023-06-22T06:58:07;22.49;78.34
13713;DHT22;6928;50.546;7.120;2023-06-22T07:00:35;22.56;78.23
13713;DHT22;6928;50.546;7.120;2023-06-22T07:03:02;22.44;77.89
13713;DHT22;6928;50.546;7.120;2023-06-22T07:05:29;22.46;77.97
13713;DHT22;6928;50.546;7.120;2023-06-22T07:07:55;22.55;77.78
13713;DHT22;6928;50.546;7.120;2023-06-22T07:10:22;22.71;78.01
13713;DHT22;6928;50.546;7.120;2023-06-22T07:12:50;22.71;77.76
13713;DHT22;6928;50.546;7.120;2023-06-22T07:15:17;22.86;77.63
13713;DHT22;6928;50.546;7.120;2023-06-22T07:17:43;22.92;77.65
13713;DHT22;6928;50.546;7.120;2023-06-22T07:20:11;23.00;77.36
13713;DHT22;6928;50.546;7.120;2023-06-22T07:22:38;23.04;77.36
13713;DHT22;6928;50.546;7.120;2023-06-22T07:25:05;23.28;76.89
13713;DHT22;6928;50.546;7.120;2023-06-22T07:27:35;23.48;76.88
13713;DHT22;6928;50.546;7.120;2023-06-22T07:30:07;23.53;76.64
13713;DHT22;6928;50.546;7.120;2023-06-22T07:32:35;23.46;75.84
13713;DHT22;6928;50.546;7.120;2023-06-22T07:35:03;23.60;75.49
13713;DHT22;6928;50.546;7.120;2023-06-22T07:37:30;23.75;75.53
13713;DHT22;6928;50.546;7.120;2023-06-22T07:39:58;24.00;74.43
13713;DHT22;6928;50.546;7.120;2023-06-22T07:42:25;23.65;75.16
13713;DHT22;6928;50.546;7.120;2023-06-22T07:44:51;23.94;74.92
13713;DHT22;6928;50.546;7.120;2023-06-22T07:47:19;24.28;74.44
13713;DHT22;6928;50.546;7.120;2023-06-22T07:49:50;24.33;73.60
13713;DHT22;6928;50.546;7.120;2023-06-22T07:52:17;24.27;73.58
13713;DHT22;6928;50.546;7.120;2023-06-22T07:54:43;24.27;73.61
13713;DHT22;6928;50.546;7.120;2023-06-22T07:57:10;24.24;73.82
13713;DHT22;6928;50.546;7.120;2023-06-22T07:59:36;24.52;73.39
13713;DHT22;6928;50.546;7.120;2023-06-22T08:02:03;25.05;72.06
13713;DHT22;6928;50.546;7.120;2023-06-22T08:04:32;24.62;72.05
13713;DHT22;6928;50.546;7.120;2023-06-22T08:07:00;24.90;71.96
13713;DHT22;6928;50.546;7.120;2023-06-22T08:09:27;25.41;71.40
13713;DHT22;6928;50.546;7.120;2023-06-22T08:11:54;25.37;70.54
13713;DHT22;6928;50.546;7.120;2023-06-22T08:14:21;25.47;70.51
13713;DHT22;6928;50.546;7.120;2023-06-22T08:16:48;25.51;70.68
13713;DHT22;6928;50.546;7.120;2023-06-22T08:19:15;25.50;70.02
13713;DHT22;6928;50.546;7.120;2023-06-22T08:21:43;25.65;69.82
13713;DHT22;6928;50.546;7.120;2023-06-22T08:24:09;25.57;70.19
13713;DHT22;6928;50.546;7.120;2023-06-22T08:26:36;25.70;70.09
13713;DHT22;6928;50.546;7.120;2023-06-22T08:29:03;25.98;69.63
13713;DHT22;6928;50.546;7.120;2023-06-22T08:31:30;25.98;68.85
13713;DHT22;6928;50.546;7.120;2023-06-22T08:33:57;26.01;68.85
13713;DHT22;6928;50.546;7.120;2023-06-22T08:36:23;26.22;68.49
13713;DHT22;6928;50.546;7.120;2023-06-22T08:38:52;26.33;68.46
13713;DHT22;6928;50.546;7.120;2023-06-22T08:41:19;26.26;68.35
13713;DHT22;6928;50.546;7.120;2023-06-22T08:43:46;26.57;68.24
13713;DHT22;6928;50.546;7.120;2023-06-22T08:46:13;26.36;68.32
13713;DHT22;6928;50.546;7.120;2023-06-22T08:48:39;26.33;68.51
13713;DHT22;6928;50.546;7.120;2023-06-22T08:51:06;26.44;67.45
13713;DHT22;6928;50.546;7.120;2023-06-22T08:53:33;26.79;67.01
13713;DHT22;6928;50.546;7.120;2023-06-22T08:56:01;26.56;66.87
13713;DHT22;6928;50.546;7.120;2023-06-22T08:58:28;26.15;67.95
13713;DHT22;6928;50.546;7.120;2023-06-22T09:00:55;26.56;67.45
13713;DHT22;6928;50.546;7.120;2023-06-22T09:03:22;26.59;67.43
13713;DHT22;6928;50.546;7.120;2023-06-22T09:05:51;26.60;67.47
13713;DHT22;6928;50.546;7.120;2023-06-22T09:08:18;26.97;65.70
13713;DHT22;6928;50.546;7.120;2023-06-22T09:10:44;27.01;66.44
13713;DHT22;6928;50.546;7.120;2023-06-22T09:13:12;26.65;66.79
13713;DHT22;6928;50.546;7.120;2023-06-22T09:15:39;26.70;67.31
13713;DHT22;6928;50.546;7.120;2023-06-22T09:18:06;26.95;66.89
13713;DHT22;6928;50.546;7.120;2023-06-22T09:20:32;26.77;66.89
13713;DHT22;6928;50.546;7.120;2023-06-22T09:22:59;26.79;67.80
13713;DHT22;6928;50.546;7.120;2023-06-22T09:25:25;27.04;66.58
13713;DHT22;6928;50.546;7.120;2023-06-22T09:27:52;27.32;65.89
13713;DHT22;6928;50.546;7.120;2023-06-22T09:30:20;27.18;65.67
13713;DHT22;6928;50.546;7.120;2023-06-22T09:32:47;27.10;64.97
13713;DHT22;6928;50.546;7.120;2023-06-22T09:35:14;27.07;65.17
13713;DHT22;6928;50.546;7.120;2023-06-22T09:37:41;27.14;65.12
13713;DHT22;6928;50.546;7.120;2023-06-22T09:40:08;26.83;65.38
13713;DHT22;6928;50.546;7.120;2023-06-22T09:42:36;26.83;65.26
13713;DHT22;6928;50.546;7.120;2023-06-22T09:45:03;26.83;64.84
13713;DHT22;6928;50.546;7.120;2023-06-22T09:47:31;26.70;64.86
13713;DHT22;6928;50.546;7.120;2023-06-22T09:49:58;26.79;65.20
13713;DHT22;6928;50.546;7.120;2023-06-22T09:52:25;26.83;65.20
13713;DHT22;6928;50.546;7.120;2023-06-22T09:54:52;26.79;66.84
13713;DHT22;6928;50.546;7.120;2023-06-22T09:57:18;26.67;68.09
13713;DHT22;6928;50.546;7.120;2023-06-22T09:59:45;26.44;68.55
13713;DHT22;6928;50.546;7.120;2023-06-22T10:02:11;26.39;69.64
13713;DHT22;6928;50.546;7.120;2023-06-22T10:04:39;26.35;70.91
13713;DHT22;6928;50.546;7.120;2023-06-22T10:07:06;26.37;70.97
13713;DHT22;6928;50.546;7.120;2023-06-22T10:09:33;26.32;71.44
13713;DHT22;6928;50.546;7.120;2023-06-22T10:12:00;26.09;71.96
13713;DHT22;6928;50.546;7.120;2023-06-22T10:14:27;25.89;70.94
13713;DHT22;6928;50.546;7.120;2023-06-22T10:16:55;25.82;72.54
13713;DHT22;6928;50.546;7.120;2023-06-22T10:19:21;25.89;72.78
13713;DHT22;6928;50.546;7.120;2023-06-22T10:21:49;25.98;73.24
13713;DHT22;6928;50.546;7.120;2023-06-22T10:24:16;25.94;75.21
13713;DHT22;6928;50.546;7.120;2023-06-22T10:26:42;25.73;76.52
13713;DHT22;6928;50.546;7.120;2023-06-22T10:29:09;25.06;78.39
13713;DHT22;6928;50.546;7.120;2023-06-22T10:31:35;24.68;80.66
13713;DHT22;6928;50.546;7.120;2023-06-22T10:34:02;24.41;82.78
13713;DHT22;6928;50.546;7.120;2023-06-22T10:36:29;24.41;84.70
13713;DHT22;6928;50.546;7.120;2023-06-22T10:38:57;24.13;84.43
13713;DHT22;6928;50.546;7.120;2023-06-22T10:41:24;23.85;85.62
13713;DHT22;6928;50.546;7.120;2023-06-22T10:43:51;23.55;86.57
13713;DHT22;6928;50.546;7.120;2023-06-22T10:46:17;23.22;86.89
13713;DHT22;6928;50.546;7.120;2023-06-22T10:48:44;23.14;86.62
13713;DHT22;6928;50.546;7.120;2023-06-22T10:51:11;23.17;86.43
13713;DHT22;6928;50.546;7.120;2023-06-22T10:53:37;23.10;85.62
13713;DHT22;6928;50.546;7.120;2023-06-22T10:56:05;23.17;85.25
13713;DHT22;6928;50.546;7.120;2023-06-22T10:58:32;23.04;86.03
13713;DHT22;6928;50.546;7.120;2023-06-22T11:00:59;23.22;86.47
13713;DHT22;6928;50.546;7.120;2023-06-22T11:03:25;23.07;87.13
13713;DHT22;6928;50.546;7.120;2023-06-22T11:05:52;23.29;86.47
13713;DHT22;6928;50.546;7.120;2023-06-22T11:08:18;23.21;86.50
13713;DHT22;6928;50.546;7.120;2023-06-22T11:10:45;23.28;87.53
13713;DHT22;6928;50.546;7.120;2023-06-22T11:13:13;23.50;87.66
13713;DHT22;6928;50.546;7.120;2023-06-22T11:15:40;23.65;86.98
13713;DHT22;6928;50.546;7.120;2023-06-22T11:18:07;23.72;86.92
13713;DHT22;6928;50.546;7.120;2023-06-22T11:20:33;23.27;85.13
13713;DHT22;6928;50.546;7.120;2023-06-22T11:23:04;23.69;87.56
13713;DHT22;6928;50.546;7.120;2023-06-22T11:25:31;23.76;87.18
13713;DHT22;6928;50.546;7.120;2023-06-22T11:28:00;24.09;86.92
13713;DHT22;6928;50.546;7.120;2023-06-22T11:30:28;23.99;86.09
13713;DHT22;6928;50.546;7.120;2023-06-22T11:32:56;24.03;85.33
13713;DHT22;6928;50.546;7.120;2023-06-22T11:35:22;24.17;85.85
13713;DHT22;6928;50.546;7.120;2023-06-22T11:37:49;24.13;85.80
13713;DHT22;6928;50.546;7.120;2023-06-22T11:40:16;23.78;83.55
13713;DHT22;6928;50.546;7.120;2023-06-22T11:42:43;24.07;85.01
13713;DHT22;6928;50.546;7.120;2023-06-22T11:45:10;24.03;84.62
13713;DHT22;6928;50.546;7.120;2023-06-22T11:47:38;24.13;84.95
13713;DHT22;6928;50.546;7.120;2023-06-22T11:50:06;23.94;84.10
13713;DHT22;6928;50.546;7.120;2023-06-22T11:52:33;24.22;85.36
13713;DHT22;6928;50.546;7.120;2023-06-22T11:55:01;24.13;86.67
13713;DHT22;6928;50.546;7.120;2023-06-22T11:57:28;24.09;86.90
13713;DHT22;6928;50.546;7.120;2023-06-22T11:59:55;24.16;86.62
13713;DHT22;6928;50.546;7.120;2023-06-22T12:02:22;23.97;87.62
13713;DHT22;6928;50.546;7.120;2023-06-22T12:04:50;24.09;87.05
13713;DHT22;6928;50.546;7.120;2023-06-22T12:07:17;23.90;86.39
13713;DHT22;6928;50.546;7.120;2023-06-22T12:09:44;23.94;86.68
13713;DHT22;6928;50.546;7.120;2023-06-22T12:12:11;23.96;86.60
13713;DHT22;6928;50.546;7.120;2023-06-22T12:14:37;23.92;86.69
13713;DHT22;6928;50.546;7.120;2023-06-22T12:17:05;23.65;86.32
13713;DHT22;6928;50.546;7.120;2023-06-22T12:19:32;23.76;86.44
13713;DHT22;6928;50.546;7.120;2023-06-22T12:21:59;23.59;85.81
13713;DHT22;6928;50.546;7.120;2023-06-22T12:24:26;23.96;85.79
13713;DHT22;6928;50.546;7.120;2023-06-22T12:26:53;23.97;85.11
13713;DHT22;6928;50.546;7.120;2023-06-22T12:29:19;23.93;85.64
13713;DHT22;6928;50.546;7.120;2023-06-22T12:31:46;24.41;83.98
13713;DHT22;6928;50.546;7.120;2023-06-22T12:34:12;24.17;84.55
13713;DHT22;6928;50.546;7.120;2023-06-22T12:36:39;24.30;84.03
13713;DHT22;6928;50.546;7.120;2023-06-22T12:39:07;24.03;84.32
13713;DHT22;6928;50.546;7.120;2023-06-22T12:41:33;24.59;83.80
13713;DHT22;6928;50.546;7.120;2023-06-22T12:44:00;24.65;82.54
13713;DHT22;6928;50.546;7.120;2023-06-22T12:46:26;24.59;81.55
13713;DHT22;6928;50.546;7.120;2023-06-22T12:48:53;24.99;81.07
13713;DHT22;6928;50.546;7.120;2023-06-22T12:51:22;25.12;81.10
13713;DHT22;6928;50.546;7.120;2023-06-22T12:53:49;24.76;80.75
13713;DHT22;6928;50.546;7.120;2023-06-22T12:56:17;24.80;81.23
13713;DHT22;6928;50.546;7.120;2023-06-22T12:58:43;25.31;80.22
13713;DHT22;6928;50.546;7.120;2023-06-22T13:01:10;25.13;81.00
13713;DHT22;6928;50.546;7.120;2023-06-22T13:03:37;25.12;79.90
13713;DHT22;6928;50.546;7.120;2023-06-22T13:06:03;25.24;78.88
13713;DHT22;6928;50.546;7.120;2023-06-22T13:08:30;25.28;77.76
13713;DHT22;6928;50.546;7.120;2023-06-22T13:10:56;25.48;77.98
13713;DHT22;6928;50.546;7.120;2023-06-22T13:13:25;25.07;78.08
13713;DHT22;6928;50.546;7.120;2023-06-22T13:15:52;25.48;78.20
13713;DHT22;6928;50.546;7.120;2023-06-22T13:18:19;25.56;78.16
13713;DHT22;6928;50.546;7.120;2023-06-22T13:20:46;25.51;77.04
13713;DHT22;6928;50.546;7.120;2023-06-22T13:23:12;25.67;77.30
13713;DHT22;6928;50.546;7.120;2023-06-22T13:25:39;25.71;77.33
13713;DHT22;6928;50.546;7.120;2023-06-22T13:28:05;25.95;76.57
13713;DHT22;6928;50.546;7.120;2023-06-22T13:30:34;25.74;77.33
13713;DHT22;6928;50.546;7.120;2023-06-22T13:33:00;25.51;77.20
13713;DHT22;6928;50.546;7.120;2023-06-22T13:35:27;25.47;77.38
13713;DHT22;6928;50.546;7.120;2023-06-22T13:37:53;25.82;77.99
13713;DHT22;6928;50.546;7.120;2023-06-22T13:40:20;25.80;77.23
13713;DHT22;6928;50.546;7.120;2023-06-22T13:42:47;25.85;76.68
13713;DHT22;6928;50.546;7.120;2023-06-22T13:45:13;25.96;76.11
13713;DHT22;6928;50.546;7.120;2023-06-22T13:47:44;25.86;75.65
13713;DHT22;6928;50.546;7.120;2023-06-22T13:50:11;25.73;76.36
13713;DHT22;6928;50.546;7.120;2023-06-22T13:52:39;25.64;75.85
13713;DHT22;6928;50.546;7.120;2023-06-22T13:55:06;25.38;75.73
13713;DHT22;6928;50.546;7.120;2023-06-22T13:57:33;25.23;75.50
13713;DHT22;6928;50.546;7.120;2023-06-22T14:00:00;25.53;76.36
13713;DHT22;6928;50.546;7.120;2023-06-22T14:02:26;25.38;76.53
13713;DHT22;6928;50.546;7.120;2023-06-22T14:04:54;25.36;77.10
13713;DHT22;6928;50.546;7.120;2023-06-22T14:07:21;25.31;77.82
13713;DHT22;6928;50.546;7.120;2023-06-22T14:09:49;25.44;77.73
13713;DHT22;6928;50.546;7.120;2023-06-22T14:12:16;25.16;79.84
13713;DHT22;6928;50.546;7.120;2023-06-22T14:14:43;25.07;80.55
13713;DHT22;6928;50.546;7.120;2023-06-22T14:17:10;25.43;83.15
13713;DHT22;6928;50.546;7.120;2023-06-22T14:19:36;24.94;85.65
13713;DHT22;6928;50.546;7.120;2023-06-22T14:22:05;24.47;86.64
13713;DHT22;6928;50.546;7.120;2023-06-22T14:24:32;24.20;87.53
13713;DHT22;6928;50.546;7.120;2023-06-22T14:26:58;24.14;86.97
13713;DHT22;6928;50.546;7.120;2023-06-22T14:29:27;23.99;85.47
13713;DHT22;6928;50.546;7.120;2023-06-22T14:35:16;23.86;89.12
13713;DHT22;6928;50.546;7.120;2023-06-22T14:37:44;23.28;88.63
13713;DHT22;6928;50.546;7.120;2023-06-22T14:40:11;23.17;89.19
13713;DHT22;6928;50.546;7.120;2023-06-22T14:42:38;22.74;90.63
13713;DHT22;6928;50.546;7.120;2023-06-22T14:45:06;21.39;93.73
13713;DHT22;6928;50.546;7.120;2023-06-22T14:47:32;21.79;87.96
13713;DHT22;6928;50.546;7.120;2023-06-22T14:49:59;22.16;88.28
13713;DHT22;6928;50.546;7.120;2023-06-22T14:52:26;22.08;87.21
13713;DHT22;6928;50.546;7.120;2023-06-22T14:54:55;22.28;87.19
13713;DHT22;6928;50.546;7.120;2023-06-22T14:57:21;22.26;87.51
13713;DHT22;6928;50.546;7.120;2023-06-22T14:59:48;22.32;87.24
13713;DHT22;6928;50.546;7.120;2023-06-22T15:02:15;21.57;87.16
13713;DHT22;6928;50.546;7.120;2023-06-22T15:04:41;21.57;87.58
13713;DHT22;6928;50.546;7.120;2023-06-22T15:07:08;21.34;87.44
13713;DHT22;6928;50.546;7.120;2023-06-22T15:09:34;21.29;88.74
13713;DHT22;6928;50.546;7.120;2023-06-22T15:12:06;21.50;88.10
13713;DHT22;6928;50.546;7.120;2023-06-22T15:14:37;21.58;87.45
13713;DHT22;6928;50.546;7.120;2023-06-22T15:17:04;21.67;86.89
13713;DHT22;6928;50.546;7.120;2023-06-22T15:19:31;21.78;86.61
13713;DHT22;6928;50.546;7.120;2023-06-22T15:21:57;21.87;87.46
13713;DHT22;6928;50.546;7.120;2023-06-22T15:24:24;21.68;88.25
13713;DHT22;6928;50.546;7.120;2023-06-22T15:26:50;21.87;88.46
13713;DHT22;6928;50.546;7.120;2023-06-22T15:29:18;21.53;87.60
13713;DHT22;6928;50.546;7.120;2023-06-22T15:31:45;21.47;89.00
13713;DHT22;6928;50.546;7.120;2023-06-22T15:34:13;21.36;89.52
13713;DHT22;6928;50.546;7.120;2023-06-22T15:36:39;21.37;89.81
13713;DHT22;6928;50.546;7.120;2023-06-22T15:39:06;21.30;90.75
13713;DHT22;6928;50.546;7.120;2023-06-22T15:41:32;21.26;90.94
13713;DHT22;6928;50.546;7.120;2023-06-22T15:43:59;21.55;91.09
13713;DHT22;6928;50.546;7.120;2023-06-22T15:46:27;21.73;91.25
13713;DHT22;6928;50.546;7.120;2023-06-22T15:48:54;21.87;90.98